CGO184 LIRU-LFMN
Flight info
| Callsign | CGO184 |
|---|---|
| Flight time | 1h 55m |
| Altitude | 12000 |
| Route | TAQ DCT BEGUD DCT KERIT |
| Aircraft | P46T/L-SBDGRWY/SB1 |
Departure
| Time | 2026-04-22 20:11 |
|---|---|
| Airport | Rome Urbe Airport (LIRU) |
Arrival
| Time | 2026-04-22 22:06 |
|---|---|
| Airport | Nice-Côte d'Azur Airport (LFMN) |
| Time | Latitude | Longitude | Altitude | Speed | Heading |
|---|---|---|---|---|---|
| 2026-04-22 19:41 | 41.95128 | 12.50500 | 23 ft | 0 kts | 83° |
| 2026-04-22 20:03 | 41.95128 | 12.50499 | 51 ft | 1 kts | 83° |
| 2026-04-22 20:03 | 41.95129 | 12.50489 | 52 ft | 0 kts | 130° |
| 2026-04-22 20:05 | 41.95122 | 12.50490 | 52 ft | 4 kts | 210° |
| 2026-04-22 20:05 | 41.95119 | 12.50470 | 48 ft | 2 kts | 265° |
| 2026-04-22 20:05 | 41.95077 | 12.50460 | 52 ft | 11 kts | 174° |
| 2026-04-22 20:06 | 41.94986 | 12.50475 | 47 ft | 14 kts | 172° |
| 2026-04-22 20:06 | 41.94888 | 12.50491 | 52 ft | 15 kts | 174° |
| 2026-04-22 20:06 | 41.94847 | 12.50495 | 52 ft | 0 kts | 180° |
| 2026-04-22 20:08 | 41.94837 | 12.50494 | 50 ft | 5 kts | 193° |
| 2026-04-22 20:09 | 41.94817 | 12.50464 | 51 ft | 1 kts | 251° |
| 2026-04-22 20:09 | 41.94821 | 12.50421 | 52 ft | 10 kts | 340° |
| 2026-04-22 20:09 | 41.94849 | 12.50412 | 52 ft | 0 kts | 339° |
| 2026-04-22 20:10 | 41.94884 | 12.50396 | 52 ft | 26 kts | 340° |
| 2026-04-22 20:10 | 41.95218 | 12.50241 | 48 ft | 71 kts | 338° |
| 2026-04-22 20:10 | 41.95813 | 12.49937 | 133 ft | 104 kts | 337° |
| 2026-04-22 20:11 | 41.96441 | 12.49397 | 438 ft | 116 kts | 312° |
| 2026-04-22 20:11 | 41.96841 | 12.48287 | 538 ft | 142 kts | 292° |
| 2026-04-22 20:11 | 41.97148 | 12.47010 | 908 ft | 150 kts | 280° |
| 2026-04-22 20:11 | 41.97077 | 12.45586 | 1328 ft | 153 kts | 270° |
| 2026-04-22 20:12 | 41.97251 | 12.44176 | 1724 ft | 153 kts | 296° |
| 2026-04-22 20:12 | 41.97693 | 12.42863 | 2163 ft | 155 kts | 299° |
| 2026-04-22 20:12 | 41.97993 | 12.41985 | 2518 ft | 157 kts | 299° |
| 2026-04-22 20:12 | 41.98611 | 12.40196 | 3060 ft | 158 kts | 299° |
| 2026-04-22 20:13 | 41.99072 | 12.38867 | 3463 ft | 161 kts | 299° |
| 2026-04-22 20:13 | 41.99544 | 12.37507 | 3916 ft | 159 kts | 300° |
| 2026-04-22 20:13 | 42.00010 | 12.36156 | 4368 ft | 159 kts | 298° |
| 2026-04-22 20:13 | 42.00473 | 12.34812 | 4826 ft | 156 kts | 299° |
| 2026-04-22 20:14 | 42.00924 | 12.33509 | 5266 ft | 155 kts | 299° |
| 2026-04-22 20:14 | 42.01379 | 12.32192 | 5682 ft | 155 kts | 299° |
| 2026-04-22 20:14 | 42.01832 | 12.30881 | 6105 ft | 154 kts | 299° |
| 2026-04-22 20:14 | 42.02284 | 12.29567 | 6511 ft | 154 kts | 299° |
| 2026-04-22 20:15 | 42.02729 | 12.28276 | 6901 ft | 154 kts | 299° |
| 2026-04-22 20:15 | 42.03181 | 12.26966 | 7306 ft | 154 kts | 300° |
| 2026-04-22 20:15 | 42.03633 | 12.25650 | 7673 ft | 155 kts | 299° |
| 2026-04-22 20:15 | 42.04087 | 12.24332 | 8051 ft | 155 kts | 299° |
| 2026-04-22 20:16 | 42.04536 | 12.23024 | 8419 ft | 156 kts | 299° |
| 2026-04-22 20:16 | 42.04993 | 12.21696 | 8794 ft | 157 kts | 299° |
| 2026-04-22 20:16 | 42.05455 | 12.20354 | 9179 ft | 158 kts | 299° |
| 2026-04-22 20:16 | 42.05917 | 12.19009 | 9545 ft | 158 kts | 300° |
| 2026-04-22 20:17 | 42.06380 | 12.17662 | 9921 ft | 159 kts | 300° |
| 2026-04-22 20:17 | 42.06846 | 12.16305 | 10267 ft | 160 kts | 300° |
| 2026-04-22 20:17 | 42.07308 | 12.14955 | 10627 ft | 159 kts | 300° |
| 2026-04-22 20:17 | 42.07772 | 12.13601 | 10968 ft | 159 kts | 300° |
| 2026-04-22 20:18 | 42.08230 | 12.12264 | 11318 ft | 159 kts | 299° |
| 2026-04-22 20:18 | 42.08692 | 12.10913 | 11679 ft | 158 kts | 299° |
| 2026-04-22 20:18 | 42.09154 | 12.09563 | 12047 ft | 158 kts | 299° |
| 2026-04-22 20:18 | 42.09640 | 12.08157 | 12087 ft | 170 kts | 300° |
| 2026-04-22 20:19 | 42.10142 | 12.06697 | 12096 ft | 177 kts | 299° |
| 2026-04-22 20:19 | 42.10666 | 12.05164 | 12099 ft | 182 kts | 299° |
| 2026-04-22 20:19 | 42.11202 | 12.03594 | 12094 ft | 186 kts | 299° |
| 2026-04-22 20:19 | 42.11748 | 12.01995 | 12098 ft | 189 kts | 299° |
| 2026-04-22 20:20 | 42.12300 | 12.00377 | 12094 ft | 191 kts | 298° |
| 2026-04-22 20:20 | 42.12853 | 11.98757 | 12090 ft | 185 kts | 299° |
| 2026-04-22 20:20 | 42.13375 | 11.97221 | 12078 ft | 179 kts | 299° |
| 2026-04-22 20:20 | 42.13889 | 11.95712 | 12068 ft | 174 kts | 299° |
| 2026-04-22 20:21 | 42.14389 | 11.94244 | 12070 ft | 171 kts | 299° |
| 2026-04-22 20:21 | 42.14882 | 11.92792 | 12070 ft | 169 kts | 299° |
| 2026-04-22 20:21 | 42.15364 | 11.91373 | 12070 ft | 167 kts | 299° |
| 2026-04-22 20:21 | 42.15848 | 11.89954 | 12067 ft | 166 kts | 299° |
| 2026-04-22 20:22 | 42.16330 | 11.88534 | 12066 ft | 166 kts | 299° |
| 2026-04-22 20:22 | 42.16811 | 11.87116 | 12069 ft | 166 kts | 299° |
| 2026-04-22 20:22 | 42.17284 | 11.85722 | 12070 ft | 165 kts | 299° |
| 2026-04-22 20:22 | 42.17764 | 11.84308 | 12068 ft | 165 kts | 299° |
| 2026-04-22 20:23 | 42.18240 | 11.82904 | 12068 ft | 165 kts | 299° |
| 2026-04-22 20:23 | 42.18717 | 11.81495 | 12067 ft | 165 kts | 299° |
| 2026-04-22 20:23 | 42.19193 | 11.80092 | 12063 ft | 164 kts | 299° |
| 2026-04-22 20:23 | 42.19661 | 11.78708 | 12064 ft | 162 kts | 300° |
| 2026-04-22 20:24 | 42.20127 | 11.77331 | 12066 ft | 160 kts | 299° |
| 2026-04-22 20:24 | 42.20591 | 11.75956 | 12065 ft | 161 kts | 299° |
| 2026-04-22 20:24 | 42.21051 | 11.74598 | 12067 ft | 161 kts | 299° |
| 2026-04-22 20:24 | 42.21516 | 11.73218 | 12071 ft | 161 kts | 299° |
| 2026-04-22 20:25 | 42.21951 | 11.71815 | 12069 ft | 162 kts | 298° |
| 2026-04-22 20:25 | 42.22392 | 11.70416 | 12071 ft | 162 kts | 298° |
| 2026-04-22 20:25 | 42.22834 | 11.69015 | 12071 ft | 162 kts | 298° |
| 2026-04-22 20:25 | 42.23273 | 11.67615 | 12074 ft | 162 kts | 298° |
| 2026-04-22 20:26 | 42.23707 | 11.66229 | 12076 ft | 162 kts | 298° |
| 2026-04-22 20:26 | 42.24147 | 11.64826 | 12074 ft | 162 kts | 298° |
| 2026-04-22 20:26 | 42.24587 | 11.63418 | 12075 ft | 163 kts | 298° |
| 2026-04-22 20:26 | 42.25027 | 11.62010 | 12074 ft | 163 kts | 298° |
| 2026-04-22 20:27 | 42.25468 | 11.60599 | 12077 ft | 163 kts | 298° |
| 2026-04-22 20:27 | 42.25909 | 11.59189 | 12077 ft | 163 kts | 298° |
| 2026-04-22 20:27 | 42.26349 | 11.57778 | 12075 ft | 163 kts | 298° |
| 2026-04-22 20:27 | 42.26783 | 11.56389 | 12079 ft | 162 kts | 298° |
| 2026-04-22 20:28 | 42.27220 | 11.54988 | 12078 ft | 161 kts | 298° |
| 2026-04-22 20:28 | 42.27654 | 11.53594 | 12079 ft | 161 kts | 298° |
| 2026-04-22 20:28 | 42.28090 | 11.52195 | 12084 ft | 161 kts | 298° |
| 2026-04-22 20:28 | 42.28524 | 11.50803 | 12083 ft | 161 kts | 298° |
| 2026-04-22 20:29 | 42.28952 | 11.49427 | 12084 ft | 163 kts | 298° |
| 2026-04-22 20:29 | 42.29401 | 11.47986 | 12096 ft | 168 kts | 298° |
| 2026-04-22 20:29 | 42.29860 | 11.46510 | 12103 ft | 172 kts | 297° |
| 2026-04-22 20:29 | 42.30327 | 11.45008 | 12106 ft | 174 kts | 297° |
| 2026-04-22 20:30 | 42.30798 | 11.43489 | 12107 ft | 176 kts | 297° |
| 2026-04-22 20:30 | 42.31275 | 11.41954 | 12109 ft | 177 kts | 297° |
| 2026-04-22 20:30 | 42.31754 | 11.40408 | 12109 ft | 178 kts | 297° |
| 2026-04-22 20:30 | 42.32227 | 11.38885 | 12108 ft | 179 kts | 297° |
| 2026-04-22 20:31 | 42.32709 | 11.37326 | 12110 ft | 180 kts | 297° |
| 2026-04-22 20:31 | 42.33192 | 11.35767 | 12112 ft | 180 kts | 297° |
| 2026-04-22 20:31 | 42.33677 | 11.34199 | 12112 ft | 180 kts | 297° |
| 2026-04-22 20:31 | 42.34162 | 11.32632 | 12115 ft | 180 kts | 297° |
| 2026-04-22 20:32 | 42.34482 | 11.31597 | 12112 ft | 180 kts | 297° |
| 2026-04-22 20:32 | 42.35123 | 11.29520 | 12115 ft | 180 kts | 297° |
| 2026-04-22 20:32 | 42.35607 | 11.27953 | 12116 ft | 181 kts | 297° |
| 2026-04-22 20:32 | 42.36092 | 11.26381 | 12115 ft | 181 kts | 297° |
| 2026-04-22 20:33 | 42.36577 | 11.24809 | 12115 ft | 181 kts | 297° |
| 2026-04-22 20:33 | 42.36899 | 11.23764 | 12115 ft | 181 kts | 297° |
| 2026-04-22 20:33 | 42.37542 | 11.21678 | 12116 ft | 181 kts | 297° |
| 2026-04-22 20:33 | 42.38027 | 11.20103 | 12117 ft | 181 kts | 297° |
| 2026-04-22 20:34 | 42.38353 | 11.19042 | 12117 ft | 181 kts | 297° |
| 2026-04-22 20:34 | 42.38834 | 11.17474 | 12115 ft | 180 kts | 297° |
| 2026-04-22 20:34 | 42.39313 | 11.15921 | 12116 ft | 181 kts | 297° |
| 2026-04-22 20:34 | 42.39794 | 11.14354 | 12115 ft | 180 kts | 297° |
| 2026-04-22 20:35 | 42.40276 | 11.12780 | 12119 ft | 180 kts | 297° |
| 2026-04-22 20:35 | 42.40761 | 11.11203 | 12119 ft | 182 kts | 297° |
| 2026-04-22 20:35 | 42.41246 | 11.09622 | 12122 ft | 182 kts | 297° |
| 2026-04-22 20:35 | 42.41726 | 11.08056 | 12119 ft | 182 kts | 297° |
| 2026-04-22 20:36 | 42.42211 | 11.06470 | 12120 ft | 182 kts | 297° |
| 2026-04-22 20:36 | 42.42695 | 11.04888 | 12117 ft | 181 kts | 297° |
| 2026-04-22 20:36 | 42.43180 | 11.03303 | 12120 ft | 181 kts | 297° |
| 2026-04-22 20:36 | 42.43662 | 11.01725 | 12116 ft | 181 kts | 297° |
| 2026-04-22 20:37 | 42.44139 | 11.00164 | 12119 ft | 181 kts | 297° |
| 2026-04-22 20:37 | 42.44621 | 10.98587 | 12120 ft | 181 kts | 297° |
| 2026-04-22 20:37 | 42.45103 | 10.97006 | 12117 ft | 181 kts | 297° |
| 2026-04-22 20:37 | 42.45584 | 10.95428 | 12116 ft | 181 kts | 297° |
| 2026-04-22 20:38 | 42.46058 | 10.93871 | 12117 ft | 181 kts | 297° |
| 2026-04-22 20:38 | 42.46539 | 10.92292 | 12116 ft | 181 kts | 297° |
| 2026-04-22 20:38 | 42.47020 | 10.90713 | 12120 ft | 181 kts | 297° |
| 2026-04-22 20:38 | 42.47498 | 10.89141 | 12116 ft | 181 kts | 297° |
| 2026-04-22 20:39 | 42.47977 | 10.87566 | 12117 ft | 181 kts | 297° |
| 2026-04-22 20:39 | 42.48450 | 10.86011 | 12117 ft | 181 kts | 297° |
| 2026-04-22 20:39 | 42.48929 | 10.84433 | 12117 ft | 181 kts | 297° |
| 2026-04-22 20:39 | 42.49409 | 10.82851 | 12119 ft | 181 kts | 297° |
| 2026-04-22 20:40 | 42.49886 | 10.81276 | 12116 ft | 181 kts | 297° |
| 2026-04-22 20:40 | 42.50364 | 10.79699 | 12117 ft | 181 kts | 297° |
| 2026-04-22 20:40 | 42.50837 | 10.78138 | 12118 ft | 181 kts | 297° |
| 2026-04-22 20:40 | 42.51314 | 10.76563 | 12117 ft | 180 kts | 297° |
| 2026-04-22 20:41 | 42.51792 | 10.74983 | 12116 ft | 180 kts | 297° |
| 2026-04-22 20:41 | 42.52270 | 10.73403 | 12119 ft | 180 kts | 297° |
| 2026-04-22 20:41 | 42.52746 | 10.71828 | 12117 ft | 181 kts | 297° |
| 2026-04-22 20:41 | 42.53216 | 10.70270 | 12119 ft | 181 kts | 297° |
| 2026-04-22 20:42 | 42.53692 | 10.68692 | 12122 ft | 181 kts | 296° |
| 2026-04-22 20:42 | 42.54170 | 10.67109 | 12118 ft | 181 kts | 296° |
| 2026-04-22 20:42 | 42.54645 | 10.65533 | 12117 ft | 180 kts | 296° |
| 2026-04-22 20:42 | 42.55121 | 10.63954 | 12120 ft | 180 kts | 297° |
| 2026-04-22 20:43 | 42.55590 | 10.62395 | 12121 ft | 180 kts | 297° |
| 2026-04-22 20:43 | 42.56065 | 10.60818 | 12123 ft | 180 kts | 297° |
| 2026-04-22 20:43 | 42.56539 | 10.59241 | 12122 ft | 180 kts | 297° |
| 2026-04-22 20:43 | 42.57012 | 10.57666 | 12120 ft | 180 kts | 296° |
| 2026-04-22 20:44 | 42.57484 | 10.56095 | 12123 ft | 180 kts | 297° |
| 2026-04-22 20:44 | 42.57957 | 10.54520 | 12121 ft | 180 kts | 296° |
| 2026-04-22 20:44 | 42.58429 | 10.52948 | 12121 ft | 180 kts | 297° |
| 2026-04-22 20:44 | 42.58894 | 10.51395 | 12124 ft | 180 kts | 297° |
| 2026-04-22 20:45 | 42.59366 | 10.49820 | 12128 ft | 180 kts | 297° |
| 2026-04-22 20:45 | 42.59837 | 10.48247 | 12125 ft | 180 kts | 297° |
| 2026-04-22 20:45 | 42.60309 | 10.46671 | 12126 ft | 180 kts | 296° |
| 2026-04-22 20:45 | 42.60780 | 10.45093 | 12126 ft | 180 kts | 296° |
| 2026-04-22 20:46 | 42.61717 | 10.41960 | 12126 ft | 180 kts | 296° |
| 2026-04-22 20:46 | 42.62187 | 10.40385 | 12129 ft | 180 kts | 296° |
| 2026-04-22 20:46 | 42.62657 | 10.38809 | 12130 ft | 180 kts | 296° |
| 2026-04-22 20:47 | 42.63128 | 10.37228 | 12128 ft | 180 kts | 296° |
| 2026-04-22 20:47 | 42.63600 | 10.35646 | 12131 ft | 181 kts | 296° |
| 2026-04-22 20:47 | 42.64069 | 10.34071 | 12131 ft | 181 kts | 296° |
| 2026-04-22 20:47 | 42.64542 | 10.32481 | 12131 ft | 181 kts | 296° |
| 2026-04-22 20:48 | 42.65015 | 10.30890 | 12129 ft | 181 kts | 296° |
| 2026-04-22 20:48 | 42.65490 | 10.29294 | 12131 ft | 181 kts | 296° |
| 2026-04-22 20:48 | 42.65963 | 10.27703 | 12130 ft | 181 kts | 296° |
| 2026-04-22 20:48 | 42.66429 | 10.26132 | 12129 ft | 182 kts | 296° |
| 2026-04-22 20:49 | 42.66901 | 10.24540 | 12134 ft | 182 kts | 296° |
| 2026-04-22 20:49 | 42.67376 | 10.22941 | 12131 ft | 182 kts | 296° |
| 2026-04-22 20:49 | 42.67850 | 10.21338 | 12134 ft | 182 kts | 296° |
| 2026-04-22 20:49 | 42.68324 | 10.19739 | 12133 ft | 182 kts | 296° |
| 2026-04-22 20:50 | 42.68791 | 10.18161 | 12133 ft | 182 kts | 296° |
| 2026-04-22 20:50 | 42.69264 | 10.16562 | 12132 ft | 182 kts | 296° |
| 2026-04-22 20:50 | 42.69739 | 10.14955 | 12129 ft | 182 kts | 296° |
| 2026-04-22 20:50 | 42.70212 | 10.13355 | 12136 ft | 182 kts | 296° |
| 2026-04-22 20:51 | 42.70680 | 10.11767 | 12140 ft | 182 kts | 296° |
| 2026-04-22 20:51 | 42.71154 | 10.10162 | 12139 ft | 182 kts | 296° |
| 2026-04-22 20:51 | 42.71627 | 10.08557 | 12133 ft | 182 kts | 296° |
| 2026-04-22 20:51 | 42.72100 | 10.06955 | 12136 ft | 182 kts | 296° |
| 2026-04-22 20:52 | 42.72566 | 10.05373 | 12135 ft | 182 kts | 296° |
| 2026-04-22 20:52 | 42.73039 | 10.03765 | 12133 ft | 183 kts | 296° |
| 2026-04-22 20:52 | 42.73512 | 10.02157 | 12135 ft | 183 kts | 296° |
| 2026-04-22 20:52 | 42.73979 | 10.00568 | 12135 ft | 183 kts | 296° |
| 2026-04-22 20:53 | 42.74450 | 9.98962 | 12134 ft | 183 kts | 296° |
| 2026-04-22 20:53 | 42.74923 | 9.97351 | 12133 ft | 183 kts | 296° |
| 2026-04-22 20:53 | 42.75397 | 9.95738 | 12131 ft | 183 kts | 296° |
| 2026-04-22 20:53 | 42.75868 | 9.94130 | 12137 ft | 183 kts | 296° |
| 2026-04-22 20:54 | 42.76341 | 9.92516 | 12132 ft | 183 kts | 296° |
| 2026-04-22 20:54 | 42.76808 | 9.90922 | 12130 ft | 183 kts | 296° |
| 2026-04-22 20:54 | 42.77280 | 9.89311 | 12133 ft | 183 kts | 296° |
| 2026-04-22 20:54 | 42.77753 | 9.87692 | 12131 ft | 183 kts | 296° |
| 2026-04-22 20:55 | 42.78283 | 9.86126 | 12132 ft | 180 kts | 305° |
| 2026-04-22 20:55 | 42.78953 | 9.84687 | 12129 ft | 180 kts | 305° |
| 2026-04-22 20:55 | 42.79607 | 9.83222 | 12135 ft | 180 kts | 304° |
| 2026-04-22 20:55 | 42.80253 | 9.81778 | 12135 ft | 181 kts | 304° |
| 2026-04-22 20:56 | 42.80910 | 9.80316 | 12132 ft | 181 kts | 305° |
| 2026-04-22 20:56 | 42.81568 | 9.78853 | 12128 ft | 181 kts | 305° |
| 2026-04-22 20:56 | 42.82227 | 9.77388 | 12131 ft | 181 kts | 304° |
| 2026-04-22 20:56 | 42.82884 | 9.75923 | 12124 ft | 181 kts | 304° |
| 2026-04-22 20:57 | 42.83542 | 9.74458 | 12126 ft | 181 kts | 304° |
| 2026-04-22 20:57 | 42.84190 | 9.73014 | 12133 ft | 181 kts | 304° |
| 2026-04-22 20:57 | 42.84844 | 9.71554 | 12132 ft | 181 kts | 304° |
| 2026-04-22 20:57 | 42.85501 | 9.70088 | 12129 ft | 181 kts | 304° |
| 2026-04-22 20:58 | 42.86159 | 9.68620 | 12136 ft | 181 kts | 305° |
| 2026-04-22 20:58 | 42.86814 | 9.67156 | 12133 ft | 181 kts | 305° |
| 2026-04-22 20:58 | 42.87470 | 9.65690 | 12132 ft | 181 kts | 305° |
| 2026-04-22 20:58 | 42.88116 | 9.64246 | 12127 ft | 180 kts | 305° |
| 2026-04-22 20:59 | 42.88771 | 9.62781 | 12130 ft | 180 kts | 305° |
| 2026-04-22 20:59 | 42.89424 | 9.61319 | 12136 ft | 180 kts | 305° |
| 2026-04-22 20:59 | 42.90080 | 9.59851 | 12134 ft | 180 kts | 305° |
| 2026-04-22 20:59 | 42.90726 | 9.58402 | 12133 ft | 180 kts | 305° |
| 2026-04-22 21:00 | 42.91379 | 9.56938 | 12136 ft | 180 kts | 305° |
| 2026-04-22 21:00 | 42.92033 | 9.55473 | 12132 ft | 181 kts | 305° |
| 2026-04-22 21:00 | 42.92686 | 9.54007 | 12134 ft | 181 kts | 305° |
| 2026-04-22 21:00 | 42.93337 | 9.52543 | 12131 ft | 181 kts | 305° |
| 2026-04-22 21:01 | 42.93988 | 9.51083 | 12141 ft | 180 kts | 306° |
| 2026-04-22 21:01 | 42.94637 | 9.49623 | 12130 ft | 180 kts | 305° |
| 2026-04-22 21:01 | 42.95288 | 9.48161 | 12138 ft | 180 kts | 305° |
| 2026-04-22 21:01 | 42.95929 | 9.46718 | 12142 ft | 180 kts | 305° |
| 2026-04-22 21:02 | 42.96581 | 9.45251 | 12146 ft | 180 kts | 305° |
| 2026-04-22 21:02 | 42.97233 | 9.43783 | 12140 ft | 180 kts | 305° |
| 2026-04-22 21:02 | 42.97882 | 9.42321 | 12144 ft | 180 kts | 305° |
| 2026-04-22 21:02 | 42.98533 | 9.40856 | 12144 ft | 180 kts | 305° |
| 2026-04-22 21:03 | 42.99174 | 9.39409 | 12147 ft | 180 kts | 306° |
| 2026-04-22 21:03 | 42.99827 | 9.37937 | 12139 ft | 181 kts | 306° |
| 2026-04-22 21:03 | 43.00479 | 9.36465 | 12150 ft | 181 kts | 306° |
| 2026-04-22 21:03 | 43.01130 | 9.34995 | 12145 ft | 179 kts | 305° |
| 2026-04-22 21:04 | 43.01766 | 9.33555 | 12142 ft | 174 kts | 305° |
| 2026-04-22 21:04 | 43.02388 | 9.32149 | 12133 ft | 171 kts | 306° |
| 2026-04-22 21:04 | 43.03001 | 9.30765 | 12060 ft | 168 kts | 306° |
| 2026-04-22 21:04 | 43.03605 | 9.29401 | 11875 ft | 170 kts | 306° |
| 2026-04-22 21:05 | 43.04217 | 9.28017 | 11734 ft | 170 kts | 306° |
| 2026-04-22 21:05 | 43.04826 | 9.26636 | 11596 ft | 169 kts | 306° |
| 2026-04-22 21:05 | 43.05435 | 9.25257 | 11454 ft | 169 kts | 306° |
| 2026-04-22 21:05 | 43.06044 | 9.23876 | 11314 ft | 169 kts | 306° |
| 2026-04-22 21:06 | 43.06656 | 9.22490 | 11172 ft | 170 kts | 306° |
| 2026-04-22 21:06 | 43.07265 | 9.21107 | 11006 ft | 169 kts | 306° |
| 2026-04-22 21:06 | 43.07884 | 9.19709 | 10603 ft | 174 kts | 306° |
| 2026-04-22 21:06 | 43.08529 | 9.18249 | 10166 ft | 179 kts | 306° |
| 2026-04-22 21:07 | 43.09140 | 9.16848 | 10153 ft | 167 kts | 306° |
| 2026-04-22 21:07 | 43.09729 | 9.15499 | 10148 ft | 163 kts | 307° |
| 2026-04-22 21:07 | 43.10312 | 9.14176 | 10141 ft | 161 kts | 308° |
| 2026-04-22 21:07 | 43.10880 | 9.12886 | 10140 ft | 159 kts | 308° |
| 2026-04-22 21:08 | 43.11447 | 9.11595 | 10145 ft | 157 kts | 308° |
| 2026-04-22 21:08 | 43.12010 | 9.10310 | 10142 ft | 156 kts | 308° |
| 2026-04-22 21:08 | 43.12573 | 9.09029 | 10140 ft | 156 kts | 307° |
| 2026-04-22 21:08 | 43.13130 | 9.07759 | 10143 ft | 155 kts | 307° |
| 2026-04-22 21:09 | 43.13687 | 9.06491 | 10139 ft | 156 kts | 307° |
| 2026-04-22 21:09 | 43.14249 | 9.05208 | 10145 ft | 160 kts | 308° |
| 2026-04-22 21:09 | 43.14827 | 9.03890 | 10147 ft | 162 kts | 307° |
| 2026-04-22 21:09 | 43.15413 | 9.02553 | 10156 ft | 163 kts | 307° |
| 2026-04-22 21:10 | 43.15994 | 9.01223 | 10203 ft | 162 kts | 307° |
| 2026-04-22 21:10 | 43.16575 | 8.99893 | 10272 ft | 162 kts | 307° |
| 2026-04-22 21:10 | 43.17154 | 8.98568 | 10368 ft | 162 kts | 306° |
| 2026-04-22 21:10 | 43.17724 | 8.97263 | 10453 ft | 162 kts | 307° |
| 2026-04-22 21:11 | 43.18305 | 8.95933 | 10533 ft | 162 kts | 307° |
| 2026-04-22 21:11 | 43.18894 | 8.94587 | 10546 ft | 166 kts | 306° |
| 2026-04-22 21:11 | 43.19495 | 8.93214 | 10551 ft | 169 kts | 306° |
| 2026-04-22 21:11 | 43.20098 | 8.91832 | 10556 ft | 171 kts | 306° |
| 2026-04-22 21:12 | 43.20504 | 8.90900 | 10558 ft | 172 kts | 306° |
| 2026-04-22 21:12 | 43.21332 | 8.88999 | 10557 ft | 174 kts | 306° |
| 2026-04-22 21:12 | 43.21955 | 8.87569 | 10558 ft | 175 kts | 307° |
| 2026-04-22 21:12 | 43.22573 | 8.86152 | 10565 ft | 175 kts | 306° |
| 2026-04-22 21:13 | 43.23200 | 8.84710 | 10562 ft | 176 kts | 306° |
| 2026-04-22 21:13 | 43.23828 | 8.83267 | 10561 ft | 176 kts | 306° |
| 2026-04-22 21:13 | 43.24457 | 8.81820 | 10560 ft | 177 kts | 306° |
| 2026-04-22 21:13 | 43.25088 | 8.80369 | 10558 ft | 177 kts | 306° |
| 2026-04-22 21:14 | 43.25717 | 8.78921 | 10560 ft | 174 kts | 306° |
| 2026-04-22 21:14 | 43.26327 | 8.77514 | 10550 ft | 168 kts | 306° |
| 2026-04-22 21:14 | 43.26915 | 8.76159 | 10544 ft | 165 kts | 306° |
| 2026-04-22 21:14 | 43.27496 | 8.74820 | 10547 ft | 162 kts | 306° |
| 2026-04-22 21:15 | 43.28069 | 8.73498 | 10542 ft | 160 kts | 306° |
| 2026-04-22 21:15 | 43.28635 | 8.72192 | 10544 ft | 158 kts | 307° |
| 2026-04-22 21:15 | 43.29199 | 8.70891 | 10541 ft | 158 kts | 306° |
| 2026-04-22 21:15 | 43.29760 | 8.69595 | 10543 ft | 157 kts | 306° |
| 2026-04-22 21:16 | 43.30309 | 8.68317 | 10542 ft | 158 kts | 303° |
| 2026-04-22 21:16 | 43.30585 | 8.66836 | 10546 ft | 161 kts | 286° |
| 2026-04-22 21:16 | 43.30777 | 8.65318 | 10457 ft | 160 kts | 287° |
| 2026-04-22 21:16 | 43.30981 | 8.63816 | 10385 ft | 160 kts | 287° |
| 2026-04-22 21:17 | 43.31188 | 8.62282 | 10218 ft | 165 kts | 287° |
| 2026-04-22 21:17 | 43.31396 | 8.60730 | 10054 ft | 169 kts | 287° |
| 2026-04-22 21:17 | 43.31609 | 8.59131 | 9874 ft | 171 kts | 286° |
| 2026-04-22 21:17 | 43.31825 | 8.57513 | 9694 ft | 173 kts | 287° |
| 2026-04-22 21:18 | 43.32042 | 8.55883 | 9509 ft | 174 kts | 287° |
| 2026-04-22 21:18 | 43.32256 | 8.54267 | 9330 ft | 175 kts | 286° |
| 2026-04-22 21:18 | 43.32473 | 8.52619 | 9148 ft | 176 kts | 284° |
| 2026-04-22 21:18 | 43.32495 | 8.50912 | 8967 ft | 181 kts | 268° |
| 2026-04-22 21:19 | 43.32200 | 8.49211 | 8783 ft | 182 kts | 262° |
| 2026-04-22 21:19 | 43.32331 | 8.47565 | 8595 ft | 172 kts | 300° |
| 2026-04-22 21:19 | 43.32800 | 8.46074 | 8425 ft | 174 kts | 292° |
| 2026-04-22 21:19 | 43.33072 | 8.44436 | 8247 ft | 177 kts | 285° |
| 2026-04-22 21:20 | 43.33296 | 8.42763 | 8071 ft | 178 kts | 285° |
| 2026-04-22 21:20 | 43.33528 | 8.41092 | 7897 ft | 178 kts | 287° |
| 2026-04-22 21:20 | 43.33687 | 8.39985 | 7779 ft | 179 kts | 286° |
| 2026-04-22 21:20 | 43.33925 | 8.38302 | 7604 ft | 179 kts | 286° |
| 2026-04-22 21:21 | 43.34159 | 8.36616 | 7433 ft | 180 kts | 285° |
| 2026-04-22 21:21 | 43.34396 | 8.34923 | 7247 ft | 181 kts | 286° |
| 2026-04-22 21:21 | 43.34632 | 8.33224 | 7087 ft | 181 kts | 285° |
| 2026-04-22 21:21 | 43.34868 | 8.31517 | 6919 ft | 182 kts | 285° |
| 2026-04-22 21:22 | 43.35103 | 8.29830 | 6748 ft | 182 kts | 285° |
| 2026-04-22 21:22 | 43.35341 | 8.28114 | 6577 ft | 183 kts | 285° |
| 2026-04-22 21:22 | 43.35579 | 8.26397 | 6393 ft | 183 kts | 285° |
| 2026-04-22 21:22 | 43.35817 | 8.24674 | 6216 ft | 183 kts | 285° |
| 2026-04-22 21:23 | 43.36056 | 8.22947 | 6029 ft | 184 kts | 285° |
| 2026-04-22 21:23 | 43.36295 | 8.21214 | 5856 ft | 184 kts | 284° |
| 2026-04-22 21:23 | 43.36530 | 8.19507 | 5682 ft | 184 kts | 285° |
| 2026-04-22 21:23 | 43.36769 | 8.17772 | 5502 ft | 184 kts | 284° |
| 2026-04-22 21:24 | 43.37007 | 8.16038 | 5324 ft | 184 kts | 284° |
| 2026-04-22 21:24 | 43.37246 | 8.14302 | 5146 ft | 184 kts | 284° |
| 2026-04-22 21:24 | 43.37478 | 8.12600 | 5121 ft | 177 kts | 284° |
| 2026-04-22 21:24 | 43.37699 | 8.10978 | 5110 ft | 173 kts | 284° |
| 2026-04-22 21:25 | 43.37931 | 8.09289 | 5115 ft | 185 kts | 283° |
| 2026-04-22 21:25 | 43.38177 | 8.07486 | 5134 ft | 197 kts | 284° |
| 2026-04-22 21:25 | 43.38433 | 8.05616 | 5123 ft | 199 kts | 284° |
| 2026-04-22 21:25 | 43.38689 | 8.03747 | 5124 ft | 199 kts | 284° |
| 2026-04-22 21:26 | 43.38940 | 8.01897 | 5131 ft | 199 kts | 284° |
| 2026-04-22 21:26 | 43.39195 | 8.00025 | 5129 ft | 199 kts | 284° |
| 2026-04-22 21:26 | 43.39450 | 7.98148 | 5126 ft | 200 kts | 283° |
| 2026-04-22 21:26 | 43.39704 | 7.96271 | 5128 ft | 199 kts | 283° |
| 2026-04-22 21:27 | 43.39957 | 7.94399 | 5118 ft | 199 kts | 284° |
| 2026-04-22 21:27 | 43.40210 | 7.92531 | 5124 ft | 198 kts | 284° |
| 2026-04-22 21:27 | 43.40459 | 7.90694 | 5112 ft | 197 kts | 284° |
| 2026-04-22 21:27 | 43.40709 | 7.88838 | 5117 ft | 197 kts | 283° |
| 2026-04-22 21:28 | 43.40960 | 7.86985 | 5119 ft | 197 kts | 283° |
| 2026-04-22 21:28 | 43.41208 | 7.85134 | 5110 ft | 196 kts | 284° |
| 2026-04-22 21:28 | 43.41458 | 7.83280 | 5064 ft | 199 kts | 284° |
| 2026-04-22 21:28 | 43.41923 | 7.81543 | 5032 ft | 194 kts | 304° |
| 2026-04-22 21:29 | 43.42604 | 7.79948 | 5030 ft | 193 kts | 304° |
| 2026-04-22 21:29 | 43.43263 | 7.78322 | 5032 ft | 193 kts | 304° |
| 2026-04-22 21:29 | 43.43922 | 7.76705 | 5032 ft | 193 kts | 303° |
| 2026-04-22 21:29 | 43.44575 | 7.75115 | 5032 ft | 193 kts | 303° |
| 2026-04-22 21:30 | 43.45233 | 7.73510 | 5031 ft | 192 kts | 303° |
| 2026-04-22 21:30 | 43.45893 | 7.71900 | 5032 ft | 192 kts | 304° |
| 2026-04-22 21:30 | 43.46554 | 7.70330 | 5027 ft | 188 kts | 304° |
| 2026-04-22 21:30 | 43.47200 | 7.68805 | 5023 ft | 185 kts | 304° |
| 2026-04-22 21:31 | 43.47729 | 7.67194 | 5018 ft | 187 kts | 286° |
| 2026-04-22 21:31 | 43.47771 | 7.65411 | 5016 ft | 188 kts | 262° |
| 2026-04-22 21:31 | 43.47318 | 7.63733 | 5011 ft | 187 kts | 237° |
| 2026-04-22 21:31 | 43.46439 | 7.62431 | 5002 ft | 184 kts | 212° |
| 2026-04-22 21:32 | 43.45405 | 7.61442 | 5013 ft | 183 kts | 213° |
| 2026-04-22 21:32 | 43.44390 | 7.60375 | 4969 ft | 185 kts | 215° |
| 2026-04-22 21:32 | 43.43390 | 7.59247 | 4961 ft | 186 kts | 218° |
| 2026-04-22 21:32 | 43.42415 | 7.58063 | 4909 ft | 189 kts | 219° |
| 2026-04-22 21:33 | 43.41444 | 7.56789 | 4771 ft | 195 kts | 222° |
| 2026-04-22 21:33 | 43.40496 | 7.55447 | 4648 ft | 197 kts | 225° |
| 2026-04-22 21:33 | 43.39587 | 7.54057 | 4527 ft | 198 kts | 227° |
| 2026-04-22 21:33 | 43.38704 | 7.52593 | 4403 ft | 199 kts | 229° |
| 2026-04-22 21:34 | 43.37858 | 7.51075 | 4271 ft | 200 kts | 231° |
| 2026-04-22 21:34 | 43.37051 | 7.49502 | 4146 ft | 201 kts | 233° |
| 2026-04-22 21:34 | 43.36293 | 7.47891 | 4031 ft | 201 kts | 236° |
| 2026-04-22 21:34 | 43.35591 | 7.46262 | 4026 ft | 195 kts | 239° |
| 2026-04-22 21:35 | 43.34957 | 7.44654 | 4017 ft | 192 kts | 240° |
| 2026-04-22 21:35 | 43.34368 | 7.43014 | 4017 ft | 191 kts | 243° |
| 2026-04-22 21:35 | 43.33825 | 7.41349 | 4013 ft | 190 kts | 246° |
| 2026-04-22 21:35 | 43.33330 | 7.39662 | 4015 ft | 191 kts | 248° |
| 2026-04-22 21:36 | 43.32881 | 7.37947 | 4015 ft | 190 kts | 250° |
| 2026-04-22 21:36 | 43.32479 | 7.36212 | 4013 ft | 190 kts | 252° |
| 2026-04-22 21:36 | 43.32129 | 7.34480 | 4014 ft | 191 kts | 256° |
| 2026-04-22 21:36 | 43.31824 | 7.32712 | 4017 ft | 190 kts | 258° |
| 2026-04-22 21:37 | 43.31568 | 7.30933 | 4017 ft | 189 kts | 260° |
| 2026-04-22 21:37 | 43.31361 | 7.29147 | 4021 ft | 190 kts | 262° |
| 2026-04-22 21:37 | 43.31202 | 7.27343 | 4020 ft | 190 kts | 265° |
| 2026-04-22 21:37 | 43.31092 | 7.25527 | 4019 ft | 190 kts | 268° |
| 2026-04-22 21:38 | 43.31033 | 7.23715 | 4022 ft | 189 kts | 269° |
| 2026-04-22 21:38 | 43.31023 | 7.21927 | 4022 ft | 189 kts | 272° |
| 2026-04-22 21:38 | 43.31061 | 7.20115 | 4023 ft | 189 kts | 275° |
| 2026-04-22 21:38 | 43.31150 | 7.18304 | 4024 ft | 189 kts | 277° |
| 2026-04-22 21:39 | 43.31286 | 7.16513 | 4024 ft | 188 kts | 279° |
| 2026-04-22 21:39 | 43.31471 | 7.14733 | 4025 ft | 188 kts | 282° |
| 2026-04-22 21:39 | 43.31700 | 7.12989 | 4025 ft | 188 kts | 284° |
| 2026-04-22 21:39 | 43.31979 | 7.11238 | 4026 ft | 187 kts | 287° |
| 2026-04-22 21:40 | 43.32303 | 7.09512 | 4027 ft | 186 kts | 289° |
| 2026-04-22 21:40 | 43.32671 | 7.07811 | 4027 ft | 185 kts | 291° |
| 2026-04-22 21:40 | 43.33082 | 7.06137 | 4028 ft | 184 kts | 293° |
| 2026-04-22 21:40 | 43.33532 | 7.04506 | 4031 ft | 185 kts | 295° |
| 2026-04-22 21:41 | 43.34023 | 7.02903 | 4029 ft | 181 kts | 298° |
| 2026-04-22 21:41 | 43.34553 | 7.01331 | 4032 ft | 181 kts | 300° |
| 2026-04-22 21:41 | 43.35121 | 6.99794 | 4032 ft | 180 kts | 303° |
| 2026-04-22 21:41 | 43.35728 | 6.98286 | 4033 ft | 180 kts | 305° |
| 2026-04-22 21:42 | 43.36370 | 6.96818 | 4031 ft | 179 kts | 307° |
| 2026-04-22 21:42 | 43.37048 | 6.95383 | 4032 ft | 178 kts | 309° |
| 2026-04-22 21:42 | 43.37748 | 6.94010 | 4033 ft | 177 kts | 311° |
| 2026-04-22 21:42 | 43.38492 | 6.92656 | 4035 ft | 176 kts | 313° |
| 2026-04-22 21:43 | 43.39252 | 6.91374 | 4035 ft | 169 kts | 318° |
| 2026-04-22 21:43 | 43.40167 | 6.90413 | 3755 ft | 172 kts | 338° |
| 2026-04-22 21:43 | 43.41341 | 6.89981 | 3372 ft | 168 kts | 3° |
| 2026-04-22 21:43 | 43.42406 | 6.90086 | 3713 ft | 145 kts | 19° |
| 2026-04-22 21:44 | 43.43349 | 6.90531 | 3887 ft | 143 kts | 31° |
| 2026-04-22 21:44 | 43.44097 | 6.91401 | 3970 ft | 140 kts | 54° |
| 2026-04-22 21:44 | 43.44759 | 6.92402 | 4036 ft | 142 kts | 51° |
| 2026-04-22 21:44 | 43.45462 | 6.93392 | 4042 ft | 147 kts | 50° |
| 2026-04-22 21:45 | 43.46205 | 6.94385 | 4046 ft | 151 kts | 48° |
| 2026-04-22 21:45 | 43.46951 | 6.95374 | 4063 ft | 144 kts | 49° |
| 2026-04-22 21:45 | 43.47627 | 6.96312 | 4056 ft | 136 kts | 50° |
| 2026-04-22 21:45 | 43.48289 | 6.97215 | 4058 ft | 131 kts | 50° |
| 2026-04-22 21:46 | 43.48908 | 6.98058 | 4057 ft | 120 kts | 50° |
| 2026-04-22 21:46 | 43.49474 | 6.98830 | 4041 ft | 106 kts | 51° |
| 2026-04-22 21:46 | 43.49983 | 6.99532 | 4039 ft | 103 kts | 50° |
| 2026-04-22 21:46 | 43.50474 | 7.00201 | 4025 ft | 96 kts | 51° |
| 2026-04-22 21:47 | 43.50945 | 7.00847 | 3961 ft | 96 kts | 51° |
| 2026-04-22 21:47 | 43.51431 | 7.01511 | 3835 ft | 100 kts | 51° |
| 2026-04-22 21:47 | 43.51926 | 7.02195 | 3706 ft | 102 kts | 51° |
| 2026-04-22 21:47 | 43.52431 | 7.02884 | 3567 ft | 102 kts | 50° |
| 2026-04-22 21:48 | 43.52928 | 7.03569 | 3436 ft | 102 kts | 51° |
| 2026-04-22 21:48 | 43.53436 | 7.04264 | 3292 ft | 103 kts | 50° |
| 2026-04-22 21:48 | 43.53948 | 7.04964 | 3150 ft | 103 kts | 50° |
| 2026-04-22 21:48 | 43.54460 | 7.05668 | 3010 ft | 104 kts | 49° |
| 2026-04-22 21:49 | 43.54979 | 7.06377 | 2872 ft | 105 kts | 49° |
| 2026-04-22 21:49 | 43.55489 | 7.07084 | 2731 ft | 105 kts | 48° |
| 2026-04-22 21:49 | 43.56013 | 7.07798 | 2587 ft | 106 kts | 48° |
| 2026-04-22 21:49 | 43.56534 | 7.08519 | 2445 ft | 107 kts | 49° |
| 2026-04-22 21:50 | 43.57065 | 7.09245 | 2299 ft | 108 kts | 47° |
| 2026-04-22 21:50 | 43.57593 | 7.09967 | 2156 ft | 108 kts | 47° |
| 2026-04-22 21:50 | 43.58131 | 7.10711 | 2004 ft | 110 kts | 46° |
| 2026-04-22 21:50 | 43.58679 | 7.11459 | 1860 ft | 110 kts | 46° |
| 2026-04-22 21:51 | 43.59224 | 7.12212 | 1706 ft | 110 kts | 45° |
| 2026-04-22 21:51 | 43.59769 | 7.12957 | 1553 ft | 109 kts | 45° |
| 2026-04-22 21:51 | 43.60247 | 7.13813 | 1338 ft | 116 kts | 62° |
| 2026-04-22 21:52 | 43.60549 | 7.15863 | 1217 ft | 116 kts | 117° |
| 2026-04-22 21:52 | 43.59858 | 7.16380 | 1157 ft | 118 kts | 175° |
| 2026-04-22 21:52 | 43.59039 | 7.16444 | 1134 ft | 122 kts | 175° |
| 2026-04-22 21:52 | 43.58149 | 7.16524 | 1138 ft | 132 kts | 175° |
| 2026-04-22 21:53 | 43.57208 | 7.16587 | 1187 ft | 137 kts | 176° |
| 2026-04-22 21:53 | 43.56258 | 7.16643 | 1238 ft | 139 kts | 176° |
| 2026-04-22 21:53 | 43.55287 | 7.16694 | 1267 ft | 140 kts | 175° |
| 2026-04-22 21:53 | 43.54310 | 7.16739 | 1304 ft | 140 kts | 176° |
| 2026-04-22 21:54 | 43.53334 | 7.16777 | 1377 ft | 141 kts | 176° |
| 2026-04-22 21:54 | 43.52357 | 7.16793 | 1423 ft | 140 kts | 176° |
| 2026-04-22 21:54 | 43.51378 | 7.16815 | 1467 ft | 142 kts | 176° |
| 2026-04-22 21:54 | 43.50411 | 7.16826 | 1565 ft | 140 kts | 175° |
| 2026-04-22 21:55 | 43.49434 | 7.16825 | 1618 ft | 140 kts | 175° |
| 2026-04-22 21:55 | 43.48475 | 7.16818 | 1732 ft | 136 kts | 175° |
| 2026-04-22 21:55 | 43.47526 | 7.16796 | 1812 ft | 136 kts | 176° |
| 2026-04-22 21:55 | 43.46576 | 7.16722 | 1855 ft | 138 kts | 181° |
| 2026-04-22 21:56 | 43.45698 | 7.16180 | 1870 ft | 147 kts | 226° |
| 2026-04-22 21:56 | 43.45436 | 7.14832 | 2002 ft | 152 kts | 278° |
| 2026-04-22 21:56 | 43.45588 | 7.13420 | 2384 ft | 150 kts | 279° |
| 2026-04-22 21:56 | 43.45726 | 7.11998 | 2698 ft | 153 kts | 279° |
| 2026-04-22 21:57 | 43.45868 | 7.10534 | 3016 ft | 155 kts | 279° |
| 2026-04-22 21:57 | 43.46154 | 7.09110 | 3315 ft | 155 kts | 291° |
| 2026-04-22 21:57 | 43.46437 | 7.07658 | 3656 ft | 157 kts | 288° |
| 2026-04-22 21:57 | 43.46787 | 7.06238 | 3988 ft | 157 kts | 292° |
| 2026-04-22 21:58 | 43.47163 | 7.04756 | 4051 ft | 175 kts | 292° |
| 2026-04-22 21:58 | 43.47592 | 7.03107 | 4060 ft | 190 kts | 292° |
| 2026-04-22 21:58 | 43.48086 | 7.01386 | 4060 ft | 194 kts | 297° |
| 2026-04-22 21:58 | 43.48940 | 7.00031 | 4054 ft | 185 kts | 337° |
| 2026-04-22 21:59 | 43.50148 | 6.99780 | 4053 ft | 172 kts | 19° |
| 2026-04-22 21:59 | 43.51089 | 7.00657 | 4060 ft | 163 kts | 54° |
| 2026-04-22 21:59 | 43.51817 | 7.01868 | 3767 ft | 160 kts | 53° |
| 2026-04-22 21:59 | 43.52523 | 7.02959 | 3546 ft | 148 kts | 51° |
| 2026-04-22 22:00 | 43.53208 | 7.03937 | 3360 ft | 137 kts | 50° |
| 2026-04-22 22:00 | 43.53862 | 7.04858 | 3172 ft | 132 kts | 49° |
| 2026-04-22 22:00 | 43.54497 | 7.05730 | 2998 ft | 128 kts | 49° |
| 2026-04-22 22:00 | 43.55126 | 7.06588 | 2825 ft | 124 kts | 49° |
| 2026-04-22 22:01 | 43.55711 | 7.07387 | 2663 ft | 114 kts | 48° |
| 2026-04-22 22:01 | 43.56251 | 7.08125 | 2509 ft | 105 kts | 48° |
| 2026-04-22 22:01 | 43.56770 | 7.08843 | 2366 ft | 106 kts | 48° |
| 2026-04-22 22:01 | 43.57297 | 7.09562 | 2235 ft | 107 kts | 47° |
| 2026-04-22 22:02 | 43.57821 | 7.10280 | 2093 ft | 105 kts | 47° |
| 2026-04-22 22:02 | 43.58338 | 7.10992 | 1954 ft | 104 kts | 47° |
| 2026-04-22 22:02 | 43.58809 | 7.11641 | 1822 ft | 92 kts | 46° |
| 2026-04-22 22:02 | 43.59264 | 7.12263 | 1698 ft | 94 kts | 46° |
| 2026-04-22 22:03 | 43.59725 | 7.12896 | 1566 ft | 93 kts | 44° |
| 2026-04-22 22:03 | 43.60189 | 7.13540 | 1440 ft | 95 kts | 44° |
| 2026-04-22 22:03 | 43.60661 | 7.14184 | 1312 ft | 96 kts | 44° |
| 2026-04-22 22:03 | 43.61135 | 7.14834 | 1182 ft | 98 kts | 41° |
| 2026-04-22 22:04 | 43.61618 | 7.15505 | 1054 ft | 97 kts | 42° |
| 2026-04-22 22:04 | 43.62092 | 7.16150 | 922 ft | 94 kts | 40° |
| 2026-04-22 22:04 | 43.62547 | 7.16783 | 793 ft | 91 kts | 41° |
| 2026-04-22 22:04 | 43.62996 | 7.17392 | 666 ft | 90 kts | 42° |
| 2026-04-22 22:05 | 43.63427 | 7.17989 | 551 ft | 87 kts | 40° |
| 2026-04-22 22:05 | 43.63849 | 7.18574 | 432 ft | 87 kts | 40° |
| 2026-04-22 22:05 | 43.64284 | 7.19160 | 314 ft | 87 kts | 40° |
| 2026-04-22 22:05 | 43.64706 | 7.19773 | 213 ft | 88 kts | 42° |
| 2026-04-22 22:06 | 43.65142 | 7.20361 | 86 ft | 86 kts | 39° |
| 2026-04-22 22:06 | 43.65554 | 7.20920 | 16 ft | 79 kts | 40° |
| 2026-04-22 22:06 | 43.65795 | 7.21234 | 17 ft | 38 kts | 45° |
| 2026-04-22 22:06 | 43.66001 | 7.21518 | 13 ft | 41 kts | 44° |
| 2026-04-22 22:07 | 43.66132 | 7.21697 | 14 ft | 22 kts | 45° |
| 2026-04-22 22:07 | 43.66226 | 7.21739 | 13 ft | 13 kts | 323° |
| 2026-04-22 22:07 | 43.66261 | 7.21693 | 12 ft | 0 kts | 314° |